20N weather

Kingston-Ulster Airport
Kingston, New York, United States

Public forecast

Using degrees Fahrenheit for public forecast. Weather courtesy of forecast.io.

METAR (pilot weather report)

Closest report is Dutchess County Airport, 21.8 nm (40.4 km) S. Retrieved 2019/07/20 03:53 UTC (25 minutes ago):

KPOU 200353Z 23004KT 10SM CLR 27/25 A2983 RMK AO2 SLP096 T02670250

TAF (pilot weather forecast)

Forecast is more than 12 hours old.

Closest forecast is Dutchess County Airport, 21.8 nm (40.4 km) S. Retrieved 2019/07/19 00:24 UTC (1 day ago):

TAF KPOU 192320Z 2000/2024 23006KT P6SM BKN250 FM200300 00000KT P6SM SCT250 FM201300 VRB03KT P6SM SKC FM201600 24006KT P6SM SCT040 FM202200 VRB03KT P6SM SCT060 SCT250